createdAt,value
2017-02-03T09:56:24.331Z,90.22
2017-02-03T09:57:38.775Z,90.22
2017-02-03T09:58:52.927Z,90.13
2017-02-03T10:00:08.629Z,90.32
2017-02-03T10:01:25.572Z,90.08
2017-02-03T10:02:39.831Z,89.41
2017-02-03T10:03:54.396Z,89.51
2017-02-03T10:05:08.943Z,89.22
2017-02-03T10:06:24.364Z,89.32
2017-02-03T10:07:39.547Z,88.75
2017-02-03T10:08:54.438Z,89.03
2017-02-03T10:10:08.999Z,88.84
2017-02-03T10:11:24.436Z,89.03
2017-02-03T10:12:39.459Z,88.37
2017-02-03T10:13:53.428Z,88.84
2017-02-03T10:15:07.871Z,88.51
2017-02-03T10:16:22.343Z,89.22
2017-02-03T10:17:36.967Z,89.41
2017-02-03T10:18:51.180Z,89.13
2017-02-03T10:20:05.416Z,89.41
2017-02-03T10:21:21.421Z,89.51
2017-02-03T10:22:36.527Z,89.03
2017-02-03T10:23:53.391Z,88.22
2017-02-03T10:25:08.251Z,88.75
2017-02-03T10:26:22.451Z,88.51
2017-02-03T10:27:37.143Z,87.84
2017-02-03T10:28:51.742Z,87.65
2017-02-03T10:30:05.735Z,88.22
2017-02-03T10:31:19.899Z,87.74
2017-02-03T10:32:34.606Z,87.84
2017-02-03T10:33:49.192Z,88.31
2017-02-03T10:35:03.183Z,88.22
2017-02-03T10:36:18.029Z,88.31
2017-02-03T10:37:32.062Z,89.36
2017-02-03T10:38:46.238Z,88.89
2017-02-03T10:40:01.004Z,88.89
2017-02-03T10:41:15.178Z,89.17
2017-02-03T10:42:29.693Z,88.41
2017-02-03T10:43:43.852Z,88.89
2017-02-03T10:44:58.307Z,89.41
2017-02-03T10:46:13.745Z,89.51
2017-02-03T10:47:28.939Z,89.89
2017-02-03T10:48:42.951Z,89.17
2017-02-03T10:49:57.951Z,88.98
2017-02-03T10:51:12.632Z,89.26
2017-02-03T10:52:28.637Z,88.7
2017-02-03T10:53:43.656Z,88.7
2017-02-03T10:54:58.097Z,88.41
2017-02-03T10:56:12.276Z,88.7
2017-02-03T10:57:26.268Z,88.12
2017-02-03T10:58:41.598Z,88.12
2017-02-03T10:59:56.639Z,87.93
2017-02-03T11:01:11.360Z,88.03
2017-02-03T11:02:26.618Z,87.84
2017-02-03T11:03:41.673Z,88.03
2017-02-03T11:04:56.989Z,88.22
2017-02-03T11:06:22.534Z,88.41
2017-02-03T11:07:37.127Z,87.84
2017-02-03T11:08:51.316Z,87.4
2017-02-03T11:10:05.911Z,87.65
2017-02-03T11:11:20.388Z,87.55
2017-02-03T11:12:35.950Z,87.65
2017-02-03T11:13:50.537Z,88.03
2017-02-03T11:15:05.613Z,88.03
2017-02-03T11:16:19.605Z,87.84
2017-02-03T11:17:33.795Z,87.74
2017-02-03T11:18:48.588Z,87.93
2017-02-03T11:20:03.289Z,87.27
2017-02-03T11:21:17.793Z,86.79
2017-02-03T11:22:32.102Z,88.22
2017-02-03T11:23:46.617Z,88.98
2017-02-03T11:25:01.949Z,87.88
2017-02-03T11:26:15.954Z,87.69
2017-02-03T11:27:30.607Z,86.45
2017-02-03T11:28:45.907Z,86.45
2017-02-03T11:30:01.772Z,86.26
2017-02-03T11:31:17.685Z,86.45
2017-02-03T11:32:31.804Z,86.55
2017-02-03T11:33:47.314Z,86.55
2017-02-03T11:35:01.429Z,86.45
2017-02-03T11:36:15.835Z,85.97
2017-02-03T11:37:30.292Z,85.93
2017-02-03T11:38:44.975Z,85.54
2017-02-03T11:39:59.151Z,85.06
2017-02-03T11:41:16.891Z,84.88
2017-02-03T11:42:32.683Z,84.88
2017-02-03T11:43:47.903Z,84.11
2017-02-03T11:45:02.893Z,84.59
2017-02-03T11:46:17.551Z,84.01
2017-02-03T11:47:32.570Z,84.01
2017-02-03T11:48:46.698Z,85.83
2017-02-03T11:50:01.634Z,84.78
2017-02-03T11:51:17.474Z,85.25
2017-02-03T11:52:32.070Z,84.88
2017-02-03T11:53:46.574Z,85.16
2017-02-03T11:55:00.747Z,85.25
2017-02-03T11:56:15.070Z,85.45
2017-02-03T11:57:29.187Z,85.06
2017-02-03T11:58:43.815Z,86.55
2017-02-03T11:59:58.378Z,85.78
2017-02-03T12:02:16.487Z,85.45
2017-02-03T12:03:31.525Z,84.74
2017-02-03T12:04:45.543Z,85.12
2017-02-03T12:06:00.130Z,85.54
2017-02-03T12:07:14.673Z,85.25
2017-02-03T12:08:30.443Z,85.69
2017-02-03T12:09:44.542Z,85.73
2017-02-03T12:10:58.908Z,85.35
2017-02-03T12:12:12.902Z,85.06
2017-02-03T12:13:27.541Z,85.16
2017-02-03T12:14:43.128Z,85.25
2017-02-03T12:15:57.865Z,84.78
2017-02-03T12:17:13.320Z,84.11
2017-02-03T12:18:28.255Z,83.92
2017-02-03T12:19:42.997Z,84.2
2017-02-03T12:20:58.563Z,84.4
2017-02-03T12:22:13.463Z,84.01
2017-02-03T12:23:27.984Z,84.4
2017-02-03T12:24:43.295Z,84.49
2017-02-03T12:25:57.836Z,84.4
2017-02-03T12:27:12.416Z,84.3
2017-02-03T12:28:26.467Z,83.92
2017-02-03T12:29:42.314Z,84.2
2017-02-03T12:30:56.278Z,84.59
2017-02-03T12:32:11.289Z,84.2
2017-02-03T12:33:26.129Z,84.01
2017-02-03T12:34:40.140Z,83.83
2017-02-03T12:35:54.799Z,83.54
2017-02-03T12:37:08.811Z,83.92
2017-02-03T12:38:23.839Z,83.06
2017-02-03T12:39:38.695Z,83.16
2017-02-03T12:40:56.526Z,83.35
2017-02-03T12:42:11.653Z,84.01
2017-02-03T12:43:26.576Z,83.44
2017-02-03T12:44:40.732Z,83.16
2017-02-03T12:45:56.313Z,83.16
2017-02-03T12:47:11.027Z,82.3
2017-02-03T12:48:26.446Z,82.4
2017-02-03T12:49:41.354Z,82.11
2017-02-03T12:50:56.259Z,81.38
2017-02-03T12:52:10.577Z,81.2
2017-02-03T12:53:25.173Z,80.91
2017-02-03T12:54:39.598Z,81.96
2017-02-03T12:55:55.667Z,81.96
2017-02-03T12:57:10.687Z,82.11
2017-02-03T12:58:25.001Z,82.01
2017-02-03T13:00:29.576Z,80.49
2017-02-03T13:01:43.770Z,80.62
2017-02-03T13:02:59.194Z,79.96
2017-02-03T13:04:14.223Z,80.24
2017-02-03T13:05:28.319Z,80.43
2017-02-03T13:06:42.613Z,81.01
2017-02-03T13:07:56.908Z,80.87
2017-02-03T13:09:11.019Z,81.35
2017-02-03T13:57:32.370Z,81.44
2017-02-03T13:58:48.211Z,81.54
2017-02-03T14:00:02.544Z,82.11
2017-02-03T14:01:17.045Z,82.4
2017-02-03T14:02:32.261Z,82.59
2017-02-03T14:03:48.003Z,83.59
2017-02-03T14:05:02.302Z,84.45
2017-02-03T14:06:17.684Z,85.6
2017-02-03T14:07:49.879Z,85.97
2017-02-03T14:09:05.022Z,86.45
2017-02-03T14:10:19.113Z,86.36
2017-02-03T14:11:33.285Z,87.02
2017-02-03T14:12:47.528Z,86.93
2017-02-03T14:14:02.088Z,87.21
2017-02-03T14:15:16.175Z,87.02
2017-02-03T14:16:30.758Z,87.4
2017-02-03T14:17:45.623Z,88.26
2017-02-03T14:18:59.763Z,87.93
2017-02-03T14:20:14.004Z,88.03
2017-02-03T14:21:28.642Z,88.03
2017-02-03T14:22:44.704Z,88.12
2017-02-03T14:23:59.197Z,88.03
2017-02-03T14:25:15.774Z,87.88
2017-02-03T14:26:30.880Z,87.21
2017-02-03T14:27:45.940Z,87.02
2017-02-03T14:29:00.579Z,87.4
2017-02-03T14:30:15.461Z,86.93
2017-02-03T14:31:30.778Z,87.4
2017-02-03T14:32:45.540Z,86.93
2017-02-03T14:34:00.190Z,86.36
2017-02-03T14:35:14.543Z,86.74
2017-02-03T14:36:29.916Z,86.74
2017-02-03T14:37:45.931Z,86.45
2017-02-03T14:39:00.250Z,86.55
2017-02-03T14:40:16.778Z,86.65
2017-02-03T14:41:31.831Z,85.69
2017-02-03T14:42:46.758Z,86.07
2017-02-03T14:44:01.349Z,85.97
2017-02-03T14:45:16.198Z,85.6
2017-02-03T14:46:31.910Z,85.31
2017-02-03T14:47:46.064Z,85.31
2017-02-03T14:49:01.531Z,85.21
2017-02-03T14:50:15.985Z,85.12
2017-02-03T14:51:31.530Z,84.07
2017-02-03T14:52:45.905Z,84.16
2017-02-03T14:54:00.536Z,84.16
2017-02-03T14:55:15.439Z,84.16
2017-02-03T14:56:31.617Z,83.88
2017-02-03T14:57:46.375Z,84.26
2017-02-03T14:59:02.193Z,83.59
2017-02-03T15:00:16.629Z,83.69
2017-02-03T15:01:31.838Z,83.59
2017-02-03T15:02:46.707Z,84.74
2017-02-03T15:04:02.102Z,84.45
2017-02-03T15:05:17.624Z,84.36
2017-02-03T15:06:33.006Z,83.78
2017-02-03T15:07:49.723Z,83.5
2017-02-03T15:09:03.750Z,83.59
2017-02-03T15:10:18.272Z,82.83
2017-02-03T15:11:33.394Z,83.5
2017-02-03T15:12:48.668Z,83.4
2017-02-03T15:14:02.736Z,83.97
2017-02-03T15:15:16.877Z,84.45
2017-02-03T15:16:32.169Z,82.83
2017-02-03T15:17:47.269Z,82.83
2017-02-03T15:19:02.761Z,81.97
2017-02-03T15:20:18.408Z,82.17
2017-02-03T15:21:32.453Z,82.35
2017-02-03T15:22:46.994Z,82.07
2017-02-03T15:24:01.700Z,81.97
2017-02-03T15:25:17.586Z,82.07
2017-02-03T15:26:32.754Z,82.26
2017-02-03T15:27:48.357Z,82.07
2017-02-03T15:29:02.381Z,81.4
2017-02-03T15:30:21.247Z,81.4
2017-02-03T15:31:36.897Z,81.21
2017-02-03T15:32:51.425Z,80.92
2017-02-03T15:34:06.138Z,81.12
2017-02-03T15:35:21.529Z,81.12
2017-02-03T15:36:37.955Z,80.54
2017-02-03T15:37:52.874Z,80.83
2017-02-03T15:39:08.006Z,80.5
2017-02-03T15:40:21.976Z,80.69
2017-02-03T15:41:37.114Z,80.5
2017-02-03T15:42:51.545Z,80.12
2017-02-03T15:44:06.192Z,80.26
2017-02-03T15:45:21.123Z,80.5
2017-02-03T15:46:35.744Z,80.22
2017-02-03T15:47:50.917Z,80.12
2017-02-03T15:49:05.694Z,79.93
2017-02-03T15:50:20.182Z,79.83
2017-02-03T15:51:35.131Z,79.55
2017-02-03T15:52:50.528Z,79.07
2017-02-03T15:54:05.886Z,78.69
2017-02-03T15:55:20.798Z,78.5
2017-02-03T15:56:36.336Z,77.83
2017-02-03T15:57:52.996Z,78.59
2017-02-03T15:59:06.997Z,78.16
2017-02-03T16:00:21.880Z,77.59
2017-02-03T16:01:36.399Z,77.55
2017-02-03T16:02:50.581Z,78.03
2017-02-03T16:04:06.760Z,77.36
2017-02-03T16:05:21.781Z,76.98
2017-02-03T16:06:38.531Z,76.5
2017-02-03T16:07:54.717Z,76.5
2017-02-03T16:09:08.786Z,76.12
2017-02-03T16:10:24.375Z,75.93
2017-02-03T16:11:39.506Z,75.93
2017-02-03T16:12:54.389Z,75.74
2017-02-03T16:14:10.079Z,75.55
2017-02-03T16:15:25.462Z,75.74
2017-02-03T16:16:39.870Z,76.06
2017-02-03T16:17:53.903Z,75.59
2017-02-03T16:19:09.684Z,75.87
2017-02-03T16:20:24.125Z,75.64
2017-02-03T16:21:39.121Z,75.93
2017-02-03T16:22:54.702Z,75.93
2017-02-03T16:24:28.554Z,75.87
2017-02-03T16:25:43.635Z,75.84
2017-02-03T16:26:58.871Z,75.74
2017-02-03T16:28:13.030Z,75.84
2017-02-03T16:29:27.929Z,76.21
2017-02-03T16:30:42.595Z,76.4
2017-02-03T16:31:57.388Z,76.59
2017-02-03T16:33:12.518Z,76.79
2017-02-03T16:34:28.088Z,75.64
2017-02-03T16:35:42.069Z,76.12
2017-02-03T16:36:56.735Z,76.79
2017-02-03T16:38:12.744Z,76.59
2017-02-03T16:39:27.985Z,76.69
2017-02-03T16:40:42.064Z,76.79
2017-02-03T16:41:56.598Z,76.84
2017-02-03T16:43:10.594Z,76.75
2017-02-03T16:44:26.988Z,77.03
2017-02-03T16:45:41.828Z,77.32
2017-02-03T16:46:58.119Z,77.61
2017-02-03T16:48:12.603Z,77.98
2017-02-03T16:49:27.717Z,77.89
2017-02-03T16:50:42.919Z,77.8
2017-02-03T16:51:58.210Z,78.46
2017-02-03T16:53:13.108Z,78.46
2017-02-03T16:54:28.684Z,78.56
2017-02-03T16:55:44.423Z,78.75
2017-02-03T16:56:59.764Z,79.13
2017-02-03T16:58:14.214Z,79.13
2017-02-03T16:59:28.993Z,79.13
2017-02-03T17:00:44.420Z,79.41
2017-02-03T17:01:58.581Z,79.57
2017-02-03T17:03:14.762Z,79.85
2017-02-03T17:04:29.777Z,79.85
2017-02-03T17:05:45.117Z,79.85
2017-02-03T17:06:59.492Z,80.04
2017-02-03T17:08:28.814Z,79.66
2017-02-03T17:09:43.228Z,79.57
2017-02-03T17:10:59.287Z,79.66
2017-02-03T17:12:15.118Z,79.94
2017-02-03T17:13:30.450Z,80.33
2017-02-03T17:14:46.054Z,80.13
2017-02-03T17:16:03.788Z,80.33
2017-02-03T17:17:19.273Z,80.99
2017-02-03T17:18:34.216Z,80.99
2017-02-03T17:19:48.961Z,81.47
2017-02-03T17:21:03.465Z,81.66
2017-02-03T17:22:18.331Z,81.76
2017-02-03T17:23:33.303Z,81.85
2017-02-03T17:24:48.425Z,81.52
2017-02-03T17:26:02.923Z,82
2017-02-03T17:27:17.812Z,83.14
2017-02-03T17:28:32.166Z,83.9
2017-02-03T17:29:46.391Z,84.28
2017-02-03T17:31:00.371Z,84
2017-02-03T17:32:14.577Z,83.81
2017-02-03T17:33:28.709Z,83.71
2017-02-03T17:35:17.234Z,84.19
2017-02-03T17:36:47.503Z,84.85
2017-02-03T17:38:03.852Z,85.42
2017-02-03T17:39:20.249Z,85.71
2017-02-03T17:40:36.007Z,85
2017-02-03T17:41:50.739Z,84.85
2017-02-03T17:43:06.035Z,84.66
2017-02-03T17:44:20.183Z,85.47
2017-02-03T17:45:35.297Z,84.81
2017-02-03T17:46:50.589Z,85
2017-02-03T17:48:04.916Z,85
2017-02-03T17:49:19.934Z,85.1
2017-02-03T17:50:33.923Z,85.1
2017-02-03T17:51:48.747Z,85.28
2017-02-03T17:53:05.506Z,85.66
2017-02-03T17:54:20.660Z,85.57
2017-02-03T17:55:35.508Z,85.38
2017-02-03T17:56:49.815Z,85.1
2017-02-03T17:58:07.035Z,85.66
2017-02-03T17:59:22.530Z,85.57
2017-02-03T18:00:38.359Z,85.76
2017-02-03T18:01:54.402Z,85.76
2017-02-03T18:03:09.499Z,85.66
2017-02-03T18:04:24.145Z,86.43
2017-02-03T18:05:38.152Z,86.19
2017-02-03T18:06:52.380Z,86.24
2017-02-03T18:08:07.523Z,86.14
2017-02-03T18:09:22.545Z,86.05
2017-02-03T18:10:37.603Z,86.05
2017-02-03T18:11:53.333Z,86.61
2017-02-03T18:13:14.731Z,85.72
2017-02-03T18:14:31.671Z,86.19
2017-02-03T18:15:46.185Z,85.81
2017-02-03T18:17:01.419Z,86.29
2017-02-03T18:18:16.623Z,85.72
2017-02-03T18:19:31.291Z,85.62
2017-02-03T18:20:46.352Z,85.81
2017-02-03T18:22:05.467Z,85.81
2017-02-03T18:23:23.667Z,85.62
2017-02-03T18:24:38.180Z,86.29
2017-02-03T18:25:52.937Z,86.47
2017-02-03T18:27:10.323Z,86
2017-02-03T18:28:25.957Z,86.1
2017-02-03T18:29:41.161Z,86.57
2017-02-03T18:30:56.643Z,86.57
2017-02-03T18:32:11.831Z,87.24
2017-02-03T18:33:27.655Z,86.67
2017-02-03T18:34:44.578Z,86.86
2017-02-03T18:35:59.297Z,87.34
2017-02-03T18:37:14.927Z,86.86
2017-02-03T18:38:30.349Z,86.47
2017-02-03T18:39:47.531Z,86
2017-02-03T18:41:02.262Z,86.24
2017-02-03T18:42:16.623Z,86.05
2017-02-03T18:43:31.196Z,85.91
2017-02-03T18:44:45.997Z,86.15
2017-02-03T18:46:01.421Z,86
2017-02-03T18:47:15.585Z,86.34
2017-02-03T18:48:30.042Z,86.72
2017-02-03T18:49:44.609Z,86.82
2017-02-03T18:50:59.409Z,87.05
2017-02-03T18:52:13.825Z,87.14
2017-02-03T18:53:28.566Z,87.1
2017-02-03T18:54:43.782Z,87.62
2017-02-03T18:55:58.865Z,86.76
2017-02-03T18:57:13.660Z,86.95
2017-02-03T18:58:29.218Z,86.24
2017-02-03T18:59:44.461Z,86.72
2017-02-03T19:00:59.726Z,87.01
2017-02-03T19:02:14.823Z,86.34
2017-02-03T19:03:30.239Z,86.43
2017-02-03T19:04:45.451Z,86.63
2017-02-03T19:06:00.085Z,86.82
2017-02-03T19:07:14.567Z,87.57
2017-02-03T19:08:29.150Z,87.48
2017-02-03T19:09:44.138Z,87.67
2017-02-03T19:10:59.546Z,87.57
2017-02-03T19:12:14.539Z,87.48
2017-02-03T19:13:28.921Z,87.57
2017-02-03T19:14:43.498Z,87.19
2017-02-03T19:15:58.584Z,87.57
2017-02-03T19:17:13.315Z,87.67
2017-02-03T19:18:28.589Z,87.95
2017-02-03T19:19:43.670Z,87.43
2017-02-03T19:20:58.783Z,88
2017-02-03T19:22:12.822Z,87.76
2017-02-03T19:23:27.279Z,87.86
2017-02-03T19:24:43.575Z,87.48
2017-02-03T19:25:58.859Z,87.38
2017-02-03T19:27:14.573Z,87.67
2017-02-03T19:28:29.110Z,87.57
2017-02-03T19:29:44.041Z,87.48
2017-02-03T19:30:59.826Z,87.38
2017-02-03T19:32:14.329Z,87.57
2017-02-03T19:33:28.836Z,87.76
2017-02-03T19:34:43.834Z,88.15
2017-02-03T19:35:59.235Z,87.86
2017-02-03T19:37:13.265Z,87.38
2017-02-03T19:38:27.506Z,87.38
2017-02-03T19:39:41.639Z,87.38
2017-02-03T19:40:56.293Z,88.15
2017-02-03T19:42:10.582Z,88.15
2017-02-03T19:43:26.252Z,88.81
2017-02-03T19:44:40.881Z,88.71
2017-02-03T19:45:55.766Z,88.71
2017-02-03T19:47:11.181Z,87.76
2017-02-03T19:48:27.481Z,88.43
2017-02-03T19:49:42.002Z,88.2
2017-02-03T19:50:56.205Z,88.67
2017-02-03T19:52:13.410Z,87.62
2017-02-03T19:53:28.794Z,88.1
2017-02-03T19:54:44.605Z,87.15
2017-02-03T19:55:58.595Z,87.43
2017-02-03T19:57:12.942Z,87.53
2017-02-03T19:58:27.116Z,88.39
2017-02-03T19:59:43.337Z,88.95
2017-02-03T20:00:57.701Z,89.81
2017-02-03T20:02:12.352Z,90.57
2017-02-03T20:03:27.093Z,90
2017-02-03T20:04:42.533Z,90.47
2017-02-03T20:05:56.865Z,89.72
2017-02-03T20:07:11.906Z,89.9
2017-02-03T20:08:27.562Z,89.05
2017-02-03T20:09:41.634Z,89.9
2017-02-03T20:10:58.578Z,89.38
2017-02-03T20:12:13.862Z,89.09
2017-02-03T20:13:41.159Z,89
2017-02-03T20:15:04.712Z,89.47
2017-02-03T20:16:18.949Z,89.19
2017-02-03T20:17:34.434Z,89.86
2017-02-03T20:18:48.641Z,90.66
2017-02-03T20:20:03.074Z,91.04
2017-02-03T20:21:23.655Z,90.57
2017-02-03T20:22:38.097Z,90.47
2017-02-03T20:23:52.801Z,89.95
2017-02-03T20:25:06.767Z,89.95
2017-02-03T20:26:22.082Z,89.81
2017-02-03T20:27:41.390Z,89.95
2017-02-03T20:29:13.330Z,89.57
2017-02-03T20:30:30.386Z,89
2017-02-03T20:31:44.444Z,89.19
2017-02-03T20:33:00.067Z,89.38
2017-02-03T20:34:16.437Z,88.9
2017-02-03T20:35:30.484Z,89.09
2017-02-03T20:36:46.116Z,89.19
2017-02-03T20:38:01.274Z,89
2017-02-03T20:39:16.302Z,89.86
2017-02-03T20:40:30.922Z,90.52
2017-02-03T20:41:46.386Z,90.33
2017-02-03T20:43:10.542Z,90.23
2017-02-03T20:44:24.720Z,90.33
2017-02-03T20:45:39.491Z,90.14
2017-02-03T20:46:54.090Z,89.86
2017-02-03T20:48:08.114Z,89.28
2017-02-03T20:49:22.928Z,88.95
2017-02-03T20:50:37.324Z,89.19
2017-02-03T20:51:52.337Z,89.61
2017-02-03T20:53:07.646Z,89.28
2017-02-03T20:54:22.151Z,89.42
2017-02-03T20:55:37.413Z,88.67
2017-02-03T20:56:51.688Z,89.47
2017-02-03T20:58:06.857Z,89.57
2017-02-03T20:59:21.855Z,89.95
2017-02-03T21:00:36.075Z,89.67
2017-02-03T21:01:50.804Z,89.67
2017-02-03T21:03:05.709Z,90.14
2017-02-03T21:04:21.624Z,89.95
2017-02-03T21:05:36.509Z,89.67
2017-02-03T21:06:52.376Z,89.95
2017-02-03T21:08:07.088Z,89.57
2017-02-03T21:09:21.619Z,89.76
2017-02-03T21:10:39.025Z,89.57
2017-02-03T21:11:53.034Z,89.19
2017-02-03T21:13:07.657Z,89.47
2017-02-03T21:14:22.224Z,89.95
2017-02-03T21:15:36.664Z,89.47
2017-02-03T21:16:50.670Z,89.47
2017-02-03T21:18:05.262Z,89.67
2017-02-03T21:19:20.232Z,88.9
2017-02-03T21:20:34.413Z,88.9
2017-02-03T21:21:50.885Z,88.71
2017-02-03T21:23:05.010Z,88.71
2017-02-03T21:24:19.851Z,89.47
2017-02-03T21:25:35.840Z,89
2017-02-03T21:26:49.847Z,89
2017-02-03T21:28:04.447Z,89.28
2017-02-03T21:29:18.461Z,89
2017-02-03T21:30:33.323Z,89
2017-02-03T21:31:48.202Z,89.09
2017-02-03T21:33:02.511Z,89.76
2017-02-03T21:34:17.727Z,90.05
2017-02-03T21:35:31.918Z,89.67
2017-02-03T21:36:45.973Z,89.38
2017-02-03T21:38:00.136Z,89.47
2017-02-03T21:39:15.153Z,89.47
2017-02-03T21:40:30.020Z,90.42
2017-02-03T21:41:44.811Z,89.95
2017-02-03T21:42:59.464Z,90.33
2017-02-03T21:44:14.404Z,90.61
2017-02-03T21:45:30.040Z,90.52
2017-02-03T21:46:44.831Z,90.8
2017-02-03T21:47:58.961Z,90.14
2017-02-03T21:49:13.456Z,89.76
2017-02-03T21:50:28.619Z,89.86
2017-02-03T21:51:43.606Z,89.38
2017-02-03T21:52:58.310Z,89.09
2017-02-03T21:54:12.280Z,89
2017-02-03T21:55:26.550Z,89.38
2017-02-03T21:56:40.606Z,88.81
2017-02-03T21:57:55.279Z,89.47
2017-02-03T21:59:09.597Z,89.19
2017-02-03T22:00:24.222Z,88.81
2017-02-03T22:01:38.315Z,88.62
2017-02-03T22:02:52.444Z,88.9
2017-02-03T22:04:06.438Z,89
2017-02-03T22:05:21.342Z,88.71
2017-02-03T22:06:36.571Z,88.81
2017-02-03T22:07:51.189Z,88.9
2017-02-03T22:09:05.180Z,88.05
2017-02-03T22:10:23.805Z,88.24
2017-02-03T22:11:38.835Z,88.43
2017-02-03T22:12:53.231Z,87.86
2017-02-03T22:14:07.223Z,88.34
2017-02-03T22:15:22.024Z,88.34
2017-02-03T22:16:36.235Z,88.62
2017-02-03T22:18:01.201Z,88.81
2017-02-03T22:19:16.236Z,88.9
2017-02-03T22:20:30.734Z,88.53
2017-02-03T22:21:45.217Z,88.05
2017-02-03T22:22:59.658Z,88.34
2017-02-03T22:24:14.316Z,87.95
2017-02-03T22:25:29.556Z,88.81
2017-02-03T22:26:53.280Z,88.71
2017-02-03T22:28:10.696Z,88.71
2017-02-03T22:29:25.176Z,88.62
2017-02-03T22:30:49.474Z,89.47
2017-02-03T22:32:21.625Z,89.62
2017-02-03T22:33:35.747Z,89.95
2017-02-03T22:34:50.161Z,90.09
2017-02-03T22:36:04.461Z,89.95
2017-02-03T22:37:19.310Z,89.67
2017-02-03T22:38:33.488Z,89.28
2017-02-03T22:39:48.284Z,89.19
2017-02-03T22:41:03.403Z,89.19
2017-02-03T22:42:18.535Z,89.57
2017-02-03T22:43:32.964Z,90.14
2017-02-03T22:44:47.555Z,90.14
2017-02-03T22:46:02.298Z,90.52
2017-02-03T22:47:17.219Z,90.05
2017-02-03T22:48:32.105Z,90.61
2017-02-03T22:50:17.678Z,90.05
2017-02-03T22:51:31.862Z,90.14
2017-02-03T22:52:46.275Z,89.95
2017-02-03T22:54:00.878Z,90.14
2017-02-03T22:55:15.300Z,89.76
2017-02-03T22:56:29.462Z,90.9
2017-02-03T22:57:44.156Z,90.9
2017-02-03T22:58:58.286Z,90.8
2017-02-03T23:00:12.807Z,90.33
2017-02-03T23:01:26.931Z,90.52
2017-02-03T23:02:41.415Z,90.05
2017-02-03T23:03:55.830Z,90.05
2017-02-03T23:05:10.264Z,90.42
2017-02-03T23:06:25.270Z,89.86
2017-02-03T23:07:39.306Z,90.33
2017-02-03T23:08:53.460Z,90.61
2017-02-03T23:10:08.192Z,90.14
2017-02-03T23:11:22.361Z,90.23
2017-02-03T23:12:36.357Z,90.14
2017-02-03T23:13:50.465Z,89.57
2017-02-03T23:15:04.883Z,90.61
2017-02-03T23:16:19.757Z,90.14
2017-02-03T23:17:33.805Z,89.86
2017-02-03T23:18:47.942Z,90.14
2017-02-03T23:20:01.941Z,89.86
2017-02-03T23:21:16.118Z,89.95
2017-02-03T23:22:30.913Z,89.57
2017-02-03T23:23:45.012Z,89
2017-02-03T23:24:58.951Z,88.9
2017-02-03T23:26:13.531Z,89
2017-02-03T23:27:27.944Z,89.19
2017-02-03T23:28:42.372Z,88.81
2017-02-03T23:29:56.327Z,88.62
2017-02-03T23:31:10.893Z,88.71
2017-02-03T23:32:25.843Z,88.53
2017-02-03T23:33:40.019Z,87.9
2017-02-03T23:34:54.344Z,88.19
2017-02-03T23:36:08.917Z,88.19
2017-02-03T23:37:23.334Z,88.28
2017-02-03T23:38:37.531Z,88.62
2017-02-03T23:39:51.984Z,88.15
2017-02-03T23:41:07.340Z,88
2017-02-03T23:42:21.302Z,87.52
2017-02-03T23:43:35.920Z,86.76
2017-02-03T23:44:50.451Z,86.47
2017-02-03T23:46:07.875Z,86.38
2017-02-03T23:47:23.615Z,85.91
2017-02-03T23:48:38.199Z,86.29
2017-02-03T23:49:54.229Z,86
2017-02-03T23:51:08.491Z,85.62
2017-02-03T23:52:32.337Z,85.72
2017-02-03T23:53:48.385Z,85.91
2017-02-03T23:55:03.161Z,85.62
2017-02-03T23:56:17.474Z,85.62
2017-02-03T23:57:32.327Z,85.43
2017-02-03T23:58:48.256Z,85.24
